createdAt,value
2023-03-24T00:00:07.503Z,16.40
2023-03-24T00:02:43.219Z,16.50
2023-03-24T00:05:20.178Z,16.40
2023-03-24T00:07:55.039Z,16.40
2023-03-24T00:10:27.592Z,16.40
2023-03-24T00:13:00.308Z,16.40
2023-03-24T00:15:33.990Z,16.60
2023-03-24T00:18:09.073Z,16.40
2023-03-24T00:20:44.991Z,16.60
2023-03-24T00:23:16.968Z,16.70
2023-03-24T00:25:57.496Z,16.50
2023-03-24T00:28:41.155Z,16.60
2023-03-24T00:31:16.534Z,16.70
2023-03-24T00:33:52.642Z,16.70
2023-03-24T00:36:44.819Z,16.80
2023-03-24T00:39:20.687Z,16.70
2023-03-24T00:41:53.328Z,16.70
2023-03-24T00:44:24.859Z,16.60
2023-03-24T00:46:58.369Z,16.60
2023-03-24T00:49:44.787Z,16.60
2023-03-24T00:52:24.450Z,16.70
2023-03-24T00:55:00.163Z,16.70
2023-03-24T00:57:36.101Z,16.80
2023-03-24T01:00:16.273Z,16.90
2023-03-24T01:02:55.278Z,16.90
2023-03-24T01:05:33.115Z,17.00
2023-03-24T01:08:30.611Z,17.00
2023-03-24T01:11:03.319Z,17.10
2023-03-24T01:13:36.134Z,17.10
2023-03-24T01:16:08.869Z,17.10
2023-03-24T01:19:01.350Z,17.10
2023-03-24T01:21:33.651Z,17.20
2023-03-24T01:24:06.568Z,17.20
2023-03-24T01:26:40.133Z,17.30
2023-03-24T01:29:12.663Z,17.30
2023-03-24T01:31:56.072Z,17.30
2023-03-24T01:34:30.161Z,17.40
2023-03-24T01:37:02.976Z,17.40
2023-03-24T01:39:56.923Z,17.40
2023-03-24T01:42:32.454Z,17.50
2023-03-24T01:45:24.810Z,17.50
2023-03-24T01:48:21.251Z,17.40
2023-03-24T01:51:37.469Z,17.50
2023-03-24T01:54:31.643Z,17.40
2023-03-24T01:57:37.130Z,17.30
2023-03-24T02:00:20.371Z,17.40
2023-03-24T02:03:25.056Z,17.40
2023-03-24T02:06:03.980Z,17.30
2023-03-24T02:08:43.698Z,17.30
2023-03-24T02:11:18.200Z,17.40
2023-03-24T02:14:21.696Z,17.40
2023-03-24T02:17:10.882Z,17.50
2023-03-24T02:20:29.309Z,17.50
2023-03-24T02:23:16.722Z,17.50
2023-03-24T02:29:22.392Z,17.60
2023-03-24T02:32:27.881Z,17.60
2023-03-24T02:35:12.944Z,17.70
2023-03-24T02:38:05.724Z,17.70
2023-03-24T02:41:03.131Z,17.80
2023-03-24T02:44:15.308Z,17.80
2023-03-24T02:47:09.047Z,17.80
2023-03-24T02:49:49.484Z,17.90
2023-03-24T02:52:41.511Z,17.90
2023-03-24T02:55:30.533Z,17.70
2023-03-24T02:58:11.608Z,17.80
2023-03-24T03:01:21.186Z,17.90
2023-03-24T03:04:31.090Z,18.00
2023-03-24T03:07:10.980Z,17.90
2023-03-24T03:09:55.063Z,17.90
2023-03-24T03:12:33.429Z,17.80
2023-03-24T03:15:27.920Z,17.80
2023-03-24T03:18:17.527Z,17.90
2023-03-24T03:21:18.952Z,18.00
2023-03-24T03:24:00.204Z,18.00
2023-03-24T03:26:41.375Z,18.00
2023-03-24T03:30:00.376Z,18.00
2023-03-24T03:32:41.056Z,18.00
2023-03-24T03:35:29.478Z,18.00
2023-03-24T03:38:25.194Z,18.00
2023-03-24T03:41:02.218Z,18.00
2023-03-24T03:43:40.107Z,18.00
2023-03-24T03:46:12.074Z,18.00
2023-03-24T03:48:49.544Z,18.00
2023-03-24T03:51:24.182Z,18.10
2023-03-24T03:54:14.116Z,18.00
2023-03-24T03:56:49.068Z,18.00
2023-03-24T03:59:38.120Z,18.00
2023-03-24T04:02:30.091Z,18.00
2023-03-24T04:05:17.231Z,18.00
2023-03-24T04:08:23.803Z,18.10
2023-03-24T04:12:08.830Z,18.10
2023-03-24T04:15:23.633Z,18.20
2023-03-24T04:18:17.975Z,18.30
2023-03-24T04:21:27.873Z,18.20
2023-03-24T04:24:36.852Z,18.20
2023-03-24T04:27:10.838Z,18.20
2023-03-24T04:29:52.444Z,18.20
2023-03-24T04:33:08.913Z,18.30
2023-03-24T04:35:48.033Z,18.30
2023-03-24T04:39:00.024Z,18.10
2023-03-24T04:41:43.303Z,18.10
2023-03-24T04:44:29.097Z,18.20
2023-03-24T04:47:56.430Z,18.10
2023-03-24T04:51:06.141Z,18.20
2023-03-24T04:54:04.913Z,18.10
2023-03-24T04:56:54.777Z,18.20
2023-03-24T04:59:45.303Z,18.20
2023-03-24T05:02:21.818Z,18.30
2023-03-24T05:05:03.418Z,18.30
2023-03-24T05:07:59.774Z,18.30
2023-03-24T05:10:36.682Z,18.40
2023-03-24T05:13:11.734Z,18.50
2023-03-24T05:16:13.059Z,18.60
2023-03-24T05:18:52.294Z,18.70
2023-03-24T05:21:24.174Z,18.70
2023-03-24T05:23:59.405Z,18.60
2023-03-24T05:26:33.499Z,18.60
2023-03-24T05:29:20.020Z,18.70
2023-03-24T05:31:54.474Z,18.50
2023-03-24T05:34:49.382Z,18.50
2023-03-24T05:37:27.666Z,18.60
2023-03-24T05:40:25.569Z,18.60
2023-03-24T05:43:24.294Z,18.40
2023-03-24T05:46:06.557Z,18.40
2023-03-24T05:48:41.634Z,18.50
2023-03-24T05:51:28.058Z,18.50
2023-03-24T05:54:07.580Z,18.40
2023-03-24T05:56:47.174Z,18.40
2023-03-24T05:59:41.136Z,18.50
2023-03-24T06:02:28.626Z,18.60
2023-03-24T06:05:33.820Z,18.60
2023-03-24T06:08:05.531Z,18.70
2023-03-24T06:10:39.060Z,18.70
2023-03-24T06:13:30.482Z,18.80
2023-03-24T06:16:03.953Z,18.80
2023-03-24T06:18:53.867Z,18.70
2023-03-24T06:21:52.413Z,18.70
2023-03-24T06:24:30.048Z,18.60
2023-03-24T06:27:23.429Z,18.60
2023-03-24T06:29:57.570Z,18.60
2023-03-24T06:32:30.370Z,18.60
2023-03-24T06:35:02.846Z,18.70
2023-03-24T06:37:46.954Z,18.70
2023-03-24T06:40:19.995Z,18.60
2023-03-24T06:43:27.372Z,18.70
2023-03-24T06:45:59.639Z,18.70
2023-03-24T06:48:36.000Z,18.70
2023-03-24T06:51:33.876Z,18.70
2023-03-24T06:54:08.739Z,18.70
2023-03-24T06:56:40.549Z,18.70
2023-03-24T06:59:14.692Z,18.70
2023-03-24T07:01:51.184Z,18.70
2023-03-24T07:04:37.996Z,18.70
2023-03-24T07:10:39.235Z,18.60
2023-03-24T07:13:12.228Z,18.60
2023-03-24T07:16:05.850Z,18.50
2023-03-24T07:18:40.416Z,18.50
2023-03-24T07:21:14.740Z,18.60
2023-03-24T07:23:55.411Z,18.70
2023-03-24T07:26:34.195Z,18.70
2023-03-24T07:29:26.747Z,18.80
2023-03-24T07:32:37.547Z,18.80
2023-03-24T07:35:16.188Z,18.70
2023-03-24T07:37:48.086Z,18.70
2023-03-24T07:40:21.091Z,18.60
2023-03-24T07:42:55.581Z,18.60
2023-03-24T07:46:00.612Z,18.50
2023-03-24T07:48:36.422Z,18.50
2023-03-24T07:51:10.308Z,18.50
2023-03-24T07:54:36.750Z,18.40
2023-03-24T07:57:11.076Z,18.40
2023-03-24T08:00:04.081Z,18.30
2023-03-24T08:03:08.687Z,18.30
2023-03-24T08:06:07.014Z,18.30
2023-03-24T08:09:06.769Z,18.20
2023-03-24T08:11:40.953Z,18.10
2023-03-24T08:14:13.715Z,18.00
2023-03-24T08:16:53.585Z,17.70
2023-03-24T08:20:00.222Z,17.50
2023-03-24T08:25:41.557Z,17.60
2023-03-24T08:28:13.349Z,17.70
2023-03-24T08:30:47.105Z,17.60
2023-03-24T08:33:19.279Z,17.50
2023-03-24T08:36:11.612Z,17.50
2023-03-24T08:38:49.044Z,17.60
2023-03-24T08:41:21.584Z,17.70
2023-03-24T08:43:53.780Z,17.80
2023-03-24T08:46:26.996Z,17.70
2023-03-24T08:48:59.100Z,17.80
2023-03-24T08:51:32.314Z,17.90
2023-03-24T08:54:05.601Z,17.80
2023-03-24T08:57:17.348Z,17.80
2023-03-24T08:59:51.369Z,17.70
2023-03-24T09:02:25.411Z,17.70
2023-03-24T09:04:57.597Z,17.50
2023-03-24T09:07:30.818Z,17.40
2023-03-24T09:10:24.453Z,17.40
2023-03-24T09:13:02.835Z,17.30
2023-03-24T09:15:59.714Z,17.30
2023-03-24T09:18:33.150Z,17.10
2023-03-24T09:21:06.416Z,16.80
2023-03-24T09:23:43.325Z,16.70
2023-03-24T09:26:16.684Z,16.50
2023-03-24T09:28:48.393Z,16.50
2023-03-24T09:31:20.233Z,16.40
2023-03-24T09:33:52.886Z,16.40
2023-03-24T09:36:28.605Z,16.40
2023-03-24T09:39:02.814Z,16.50
2023-03-24T09:41:37.173Z,16.50
2023-03-24T09:47:25.740Z,16.30
2023-03-24T09:50:02.635Z,16.40
2023-03-24T09:52:42.335Z,16.50
2023-03-24T09:55:22.612Z,16.50
2023-03-24T09:57:59.156Z,16.60
2023-03-24T10:00:50.940Z,16.70
2023-03-24T10:03:42.991Z,16.60
2023-03-24T10:06:37.583Z,16.40
2023-03-24T10:09:34.383Z,16.40
2023-03-24T10:12:07.764Z,16.40
2023-03-24T10:15:03.134Z,16.20
2023-03-24T10:18:15.591Z,16.40
2023-03-24T10:21:06.025Z,16.30
2023-03-24T10:23:51.155Z,16.10
2023-03-24T10:27:01.727Z,16.10
2023-03-24T10:30:00.305Z,16.10
2023-03-24T10:32:38.230Z,16.20
2023-03-24T10:35:22.504Z,16.20
2023-03-24T10:37:54.815Z,16.30
2023-03-24T10:40:34.359Z,16.10
2023-03-24T10:43:09.895Z,16.10
2023-03-24T10:45:51.491Z,16.10
2023-03-24T10:48:46.520Z,16.00
2023-03-24T10:51:24.152Z,16.00
2023-03-24T10:54:16.450Z,16.10
2023-03-24T10:57:09.669Z,16.20
2023-03-24T11:00:21.280Z,16.20
2023-03-24T11:03:05.778Z,16.30
2023-03-24T11:05:42.181Z,16.30
2023-03-24T11:08:45.158Z,16.30
2023-03-24T11:11:46.003Z,16.20
2023-03-24T11:14:40.265Z,16.20
2023-03-24T11:17:35.640Z,16.20
2023-03-24T11:20:40.199Z,16.10
2023-03-24T11:23:27.963Z,16.10
2023-03-24T11:26:10.956Z,16.20
2023-03-24T11:29:11.284Z,16.10
2023-03-24T11:32:16.447Z,16.10
2023-03-24T11:34:59.668Z,15.90
2023-03-24T11:37:47.654Z,15.70
2023-03-24T11:40:29.311Z,15.70
2023-03-24T11:43:05.898Z,15.50
2023-03-24T11:45:43.627Z,15.60
2023-03-24T11:48:54.175Z,15.50
2023-03-24T11:51:38.087Z,15.50
2023-03-24T11:54:18.488Z,15.60
2023-03-24T11:56:57.062Z,15.50
2023-03-24T11:59:41.568Z,15.50
2023-03-24T12:02:38.306Z,15.50
2023-03-24T12:05:50.931Z,15.50
2023-03-24T12:08:36.088Z,15.40
2023-03-24T12:12:11.285Z,15.30
2023-03-24T12:14:54.002Z,15.30
2023-03-24T12:17:58.508Z,15.30
2023-03-24T12:21:47.007Z,15.40
2023-03-24T12:25:06.407Z,15.40
2023-03-24T12:28:09.220Z,15.20
2023-03-24T12:31:49.792Z,15.30
2023-03-24T12:34:50.218Z,15.20
2023-03-24T12:38:04.024Z,15.30
2023-03-24T12:41:04.278Z,15.40
2023-03-24T12:44:00.154Z,15.60
2023-03-24T12:46:55.076Z,15.70
2023-03-24T12:50:27.220Z,15.40
2023-03-24T12:53:27.480Z,15.30
2023-03-24T12:56:15.588Z,15.50
2023-03-24T13:03:25.902Z,15.50
2023-03-24T13:06:16.357Z,15.30
2023-03-24T13:09:12.846Z,15.50
2023-03-24T13:12:13.116Z,15.40
2023-03-24T13:15:02.618Z,15.50
2023-03-24T13:17:55.504Z,15.60
2023-03-24T13:21:14.210Z,15.40
2023-03-24T13:24:15.510Z,15.30
2023-03-24T13:27:07.747Z,15.20
2023-03-24T13:30:17.370Z,15.10
2023-03-24T13:33:05.271Z,15.20
2023-03-24T13:36:10.789Z,14.90
2023-03-24T13:39:29.068Z,15.00
2023-03-24T13:42:06.899Z,14.80
2023-03-24T13:45:03.056Z,14.70
2023-03-24T13:48:16.153Z,14.80
2023-03-24T13:51:28.975Z,14.70
2023-03-24T13:54:21.205Z,14.70
2023-03-24T14:00:13.856Z,14.80
2023-03-24T14:02:51.829Z,15.00
2023-03-24T14:05:34.561Z,15.10
2023-03-24T14:08:20.650Z,15.20
2023-03-24T14:10:55.825Z,15.20
2023-03-24T14:14:41.336Z,15.10
2023-03-24T14:17:21.269Z,14.90
2023-03-24T14:20:15.208Z,14.80
2023-03-24T14:23:42.192Z,14.80
2023-03-24T14:26:29.852Z,14.90
2023-03-24T14:29:43.316Z,14.70
2023-03-24T14:33:12.063Z,14.70
2023-03-24T14:35:51.181Z,14.70
2023-03-24T14:38:53.031Z,14.80
2023-03-24T14:41:35.834Z,14.90
2023-03-24T14:44:09.213Z,14.80
2023-03-24T14:46:53.034Z,14.70
2023-03-24T14:50:12.336Z,14.70
2023-03-24T14:53:21.482Z,14.90
2023-03-24T14:55:57.228Z,14.90
2023-03-24T14:59:03.088Z,14.90
2023-03-24T15:02:37.816Z,15.00
2023-03-24T15:05:33.470Z,14.90
2023-03-24T15:08:44.392Z,14.80
2023-03-24T15:11:30.289Z,14.70
2023-03-24T15:14:34.979Z,14.30
2023-03-24T15:17:33.848Z,14.60
2023-03-24T15:20:16.893Z,14.60
2023-03-24T15:22:57.504Z,14.70
2023-03-24T15:25:58.791Z,14.60
2023-03-24T15:28:33.323Z,14.70
2023-03-24T15:31:11.008Z,14.70
2023-03-24T15:33:49.660Z,14.80
2023-03-24T15:36:27.318Z,14.70
2023-03-24T15:41:57.014Z,14.50
2023-03-24T15:45:04.384Z,14.70
2023-03-24T15:47:57.541Z,14.50
2023-03-24T15:54:17.044Z,14.50
2023-03-24T15:57:05.474Z,14.50
2023-03-24T16:02:43.489Z,14.10
2023-03-24T16:05:29.743Z,14.20
2023-03-24T16:08:09.107Z,14.40
2023-03-24T16:11:06.094Z,14.50
2023-03-24T16:16:50.576Z,14.30
2023-03-24T16:19:42.300Z,13.90
2023-03-24T16:22:34.807Z,13.70
2023-03-24T16:25:48.401Z,13.60
2023-03-24T16:28:22.338Z,13.80
2023-03-24T16:31:35.348Z,13.90
2023-03-24T16:34:30.638Z,14.00
2023-03-24T16:37:23.959Z,14.10
2023-03-24T16:39:57.754Z,14.00
2023-03-24T16:42:53.153Z,13.70
2023-03-24T16:45:47.350Z,13.60
2023-03-24T16:48:22.516Z,13.70
2023-03-24T16:50:57.532Z,13.70
2023-03-24T16:54:13.403Z,13.60
2023-03-24T16:57:04.457Z,13.50
2023-03-24T16:59:56.146Z,13.50
2023-03-24T17:02:49.702Z,13.30
2023-03-24T17:05:26.394Z,13.40
2023-03-24T17:08:03.910Z,13.40
2023-03-24T17:10:35.629Z,13.60
2023-03-24T17:13:08.926Z,13.50
2023-03-24T17:15:44.306Z,13.50
2023-03-24T17:18:16.621Z,13.40
2023-03-24T17:20:51.950Z,13.40
2023-03-24T17:23:26.500Z,13.70
2023-03-24T17:26:01.941Z,13.80
2023-03-24T17:28:34.715Z,13.70
2023-03-24T17:31:06.979Z,13.80
2023-03-24T17:33:38.640Z,13.70
2023-03-24T17:36:18.786Z,13.70
2023-03-24T17:38:50.716Z,13.90
2023-03-24T17:41:25.503Z,14.00
2023-03-24T17:43:56.924Z,14.10
2023-03-24T17:46:28.544Z,14.10
2023-03-24T17:49:00.068Z,14.00
2023-03-24T17:51:39.032Z,14.10
2023-03-24T17:54:15.256Z,13.90
2023-03-24T17:56:49.392Z,13.90
2023-03-24T17:59:41.655Z,13.80
2023-03-24T18:02:15.764Z,14.00
2023-03-24T18:04:47.327Z,14.00
2023-03-24T18:07:19.968Z,13.90
2023-03-24T18:09:53.079Z,13.80
2023-03-24T18:12:26.577Z,14.00
2023-03-24T18:15:18.164Z,13.90
2023-03-24T18:17:51.570Z,13.50
2023-03-24T18:20:44.199Z,13.40
2023-03-24T18:23:17.577Z,13.70
2023-03-24T18:26:10.732Z,13.70
2023-03-24T18:28:44.823Z,13.50
2023-03-24T18:31:23.054Z,13.40
2023-03-24T18:33:57.317Z,13.40
2023-03-24T18:36:30.604Z,13.50
2023-03-24T18:39:09.432Z,13.70
2023-03-24T18:41:42.724Z,13.80
2023-03-24T18:44:18.520Z,13.90
2023-03-24T18:46:50.481Z,14.00
2023-03-24T18:49:22.661Z,13.90
2023-03-24T18:51:54.638Z,14.00
2023-03-24T18:54:27.568Z,13.90
2023-03-24T18:57:00.397Z,13.90
2023-03-24T18:59:33.413Z,13.80
2023-03-24T19:02:05.567Z,13.80
2023-03-24T19:04:37.646Z,13.80
2023-03-24T19:07:16.000Z,13.40
2023-03-24T19:09:50.892Z,13.40
2023-03-24T19:12:23.461Z,13.20
2023-03-24T19:14:57.734Z,13.10
2023-03-24T19:17:30.751Z,13.40
2023-03-24T19:20:01.794Z,13.10
2023-03-24T19:22:36.127Z,13.20
2023-03-24T19:25:07.416Z,13.30
2023-03-24T19:27:39.246Z,13.50
2023-03-24T19:30:31.259Z,13.50
2023-03-24T19:33:02.869Z,13.60
2023-03-24T19:35:34.552Z,13.20
2023-03-24T19:38:07.135Z,13.30
2023-03-24T19:40:38.437Z,13.50
2023-03-24T19:43:10.557Z,13.30
2023-03-24T19:45:44.661Z,13.10
2023-03-24T19:48:17.796Z,13.40
2023-03-24T19:50:52.912Z,13.40
2023-03-24T19:53:25.924Z,13.50
2023-03-24T19:56:02.985Z,13.50
2023-03-24T19:58:34.994Z,13.40
2023-03-24T20:01:06.986Z,13.40
2023-03-24T20:03:39.434Z,13.10
2023-03-24T20:06:12.732Z,13.00
2023-03-24T20:08:46.267Z,13.00
2023-03-24T20:11:17.990Z,12.90
2023-03-24T20:13:51.262Z,12.70
2023-03-24T20:16:23.122Z,12.70
2023-03-24T20:18:55.257Z,12.70
2023-03-24T20:21:26.958Z,12.60
2023-03-24T20:23:59.383Z,12.90
2023-03-24T20:26:31.116Z,13.00
2023-03-24T20:29:03.591Z,13.10
2023-03-24T20:31:38.042Z,13.40
2023-03-24T20:34:10.214Z,13.30
2023-03-24T20:36:42.974Z,13.00
2023-03-24T20:39:14.468Z,13.10
2023-03-24T20:41:46.054Z,13.20
2023-03-24T20:44:18.225Z,13.30
2023-03-24T20:46:50.517Z,13.40
2023-03-24T20:49:23.495Z,13.60
2023-03-24T20:51:57.272Z,13.60
2023-03-24T20:54:29.049Z,13.60
2023-03-24T20:57:00.828Z,13.80
2023-03-24T20:59:32.690Z,13.90
2023-03-24T21:02:04.267Z,13.90
2023-03-24T21:04:37.332Z,13.90
2023-03-24T21:07:08.651Z,13.70
2023-03-24T21:09:41.599Z,13.90
2023-03-24T21:12:13.885Z,14.00
2023-03-24T21:14:48.386Z,13.80
2023-03-24T21:17:20.365Z,13.80
2023-03-24T21:19:56.434Z,13.50
2023-03-24T21:22:39.096Z,13.30
2023-03-24T21:25:11.398Z,13.20
2023-03-24T21:27:42.920Z,13.30
2023-03-24T21:30:15.773Z,13.40
2023-03-24T21:32:48.319Z,13.50
2023-03-24T21:35:21.537Z,13.40
2023-03-24T21:37:55.937Z,13.50
2023-03-24T21:40:28.917Z,13.50
2023-03-24T21:43:06.365Z,12.90
2023-03-24T21:45:40.719Z,13.10
2023-03-24T21:48:15.056Z,13.10
2023-03-24T21:50:48.183Z,13.20
2023-03-24T21:53:22.549Z,13.30
2023-03-24T21:56:07.187Z,13.40
2023-03-24T21:58:39.575Z,13.40
2023-03-24T22:01:11.224Z,13.20
2023-03-24T22:03:43.855Z,13.00
2023-03-24T22:06:16.359Z,12.90
2023-03-24T22:08:50.515Z,13.00
2023-03-24T22:11:21.744Z,13.20
2023-03-24T22:13:54.148Z,13.10
2023-03-24T22:16:26.315Z,13.20
2023-03-24T22:19:00.283Z,13.20
2023-03-24T22:21:33.695Z,13.20
2023-03-24T22:24:05.736Z,13.30
2023-03-24T22:26:38.614Z,13.30
2023-03-24T22:29:10.592Z,13.30
2023-03-24T22:31:45.059Z,13.50
2023-03-24T22:34:15.937Z,13.00
2023-03-24T22:36:49.537Z,12.90
2023-03-24T22:39:21.473Z,12.80
2023-03-24T22:41:53.660Z,12.80
2023-03-24T22:44:25.471Z,12.80
2023-03-24T22:47:00.611Z,12.60
2023-03-24T22:49:34.583Z,12.80
2023-03-24T22:52:05.822Z,12.70
2023-03-24T22:54:38.296Z,12.60
2023-03-24T22:57:10.217Z,12.80
2023-03-24T22:59:45.182Z,12.90
2023-03-24T23:02:25.650Z,12.60
2023-03-24T23:04:57.194Z,13.00
2023-03-24T23:07:30.133Z,12.90
2023-03-24T23:10:03.198Z,13.00
2023-03-24T23:12:42.547Z,13.10
2023-03-24T23:15:19.321Z,12.80
2023-03-24T23:17:51.554Z,12.80
2023-03-24T23:20:23.223Z,12.80
2023-03-24T23:22:56.604Z,12.80
2023-03-24T23:25:32.157Z,13.00
2023-03-24T23:28:04.498Z,12.80
2023-03-24T23:30:55.959Z,12.80
2023-03-24T23:33:30.064Z,12.90
2023-03-24T23:36:03.461Z,13.10
2023-03-24T23:38:37.177Z,13.00
2023-03-24T23:41:11.366Z,12.90
2023-03-24T23:43:44.604Z,13.20
2023-03-24T23:46:17.537Z,13.30
2023-03-24T23:48:52.648Z,13.30
2023-03-24T23:51:27.146Z,13.30
2023-03-24T23:53:59.830Z,13.00
2023-03-24T23:56:32.118Z,13.10
2023-03-24T23:59:08.011Z,13.20
